createdAt,value
2019-05-10T00:03:19.237Z,17.51
2019-05-10T00:06:28.062Z,17.55
2019-05-10T00:08:58.836Z,17.63
2019-05-10T00:12:07.541Z,17.49
2019-05-10T00:14:58.207Z,17.10
2019-05-10T00:20:34.788Z,17.11
2019-05-10T00:23:06.017Z,17.07
2019-05-10T00:25:56.921Z,17.23
2019-05-10T00:28:33.072Z,17.09
2019-05-10T00:33:55.266Z,17.21
2019-05-10T00:36:26.352Z,17.03
2019-05-10T00:38:58.411Z,16.87
2019-05-10T00:44:39.901Z,16.99
2019-05-10T00:47:31.168Z,16.90
2019-05-10T00:50:21.027Z,16.91
2019-05-10T00:55:44.416Z,16.90
2019-05-10T00:58:15.606Z,16.73
2019-05-10T01:00:47.576Z,16.62
2019-05-10T01:03:19.709Z,16.69
2019-05-10T01:05:50.850Z,16.80
2019-05-10T01:08:24.722Z,16.99
2019-05-10T01:10:55.848Z,17.10
2019-05-10T01:13:27.004Z,17.21
2019-05-10T01:15:58.985Z,17.60
2019-05-10T01:18:30.183Z,17.60
2019-05-10T01:21:20.790Z,17.67
2019-05-10T01:23:51.940Z,17.55
2019-05-10T01:29:13.294Z,17.22
2019-05-10T01:31:45.353Z,17.18
2019-05-10T01:34:35.571Z,17.59
2019-05-10T01:37:07.541Z,17.57
2019-05-10T01:43:00.493Z,17.26
2019-05-10T01:45:31.632Z,17.30
2019-05-10T01:48:03.029Z,17.28
2019-05-10T01:50:53.067Z,17.23
2019-05-10T01:53:24.365Z,17.11
2019-05-10T01:55:56.197Z,17.26
2019-05-10T01:58:46.365Z,17.20
2019-05-10T02:01:17.581Z,17.18
2019-05-10T02:03:49.662Z,17.02
2019-05-10T02:06:23.907Z,16.96
2019-05-10T02:08:55.352Z,17.13
2019-05-10T02:11:26.555Z,16.99
2019-05-10T02:13:57.759Z,16.90
2019-05-10T02:16:28.877Z,16.86
2019-05-10T02:19:00.111Z,16.87
2019-05-10T02:21:32.007Z,16.92
2019-05-10T02:24:03.216Z,16.86
2019-05-10T02:26:34.372Z,16.79
2019-05-10T02:29:26.154Z,16.60
2019-05-10T02:31:58.128Z,16.47
2019-05-10T02:34:28.303Z,16.44
2019-05-10T02:40:08.760Z,16.17
2019-05-10T02:42:40.754Z,16.24
2019-05-10T02:45:31.144Z,16.14
2019-05-10T02:48:02.280Z,16.17
2019-05-10T02:50:52.053Z,16.34
2019-05-10T02:53:23.255Z,16.40
2019-05-10T02:55:57.484Z,16.26
2019-05-10T02:58:47.468Z,16.19
2019-05-10T03:01:18.795Z,16.19
2019-05-10T03:04:09.268Z,16.29
2019-05-10T03:10:20.733Z,15.99
2019-05-10T03:13:02.892Z,16.02
2019-05-10T03:15:53.369Z,15.84
2019-05-10T03:18:37.392Z,15.94
2019-05-10T03:21:09.489Z,15.94
2019-05-10T03:26:50.693Z,15.87
2019-05-10T03:29:48.658Z,15.75
2019-05-10T03:32:09.811Z,15.87
2019-05-10T03:34:41.748Z,15.74
2019-05-10T03:37:51.979Z,15.81
2019-05-10T03:40:23.929Z,15.69
2019-05-10T03:42:54.266Z,15.72
2019-05-10T03:48:36.452Z,15.74
2019-05-10T03:53:57.593Z,15.87
2019-05-10T03:56:31.213Z,15.84
2019-05-10T03:59:22.187Z,15.89
2019-05-10T04:02:13.876Z,15.89
2019-05-10T04:07:26.922Z,15.83
2019-05-10T04:09:57.963Z,15.60
2019-05-10T04:12:28.855Z,15.62
2019-05-10T04:15:12.992Z,15.66
2019-05-10T04:17:38.016Z,15.66
2019-05-10T04:20:09.342Z,15.86
2019-05-10T04:22:40.432Z,16.15
2019-05-10T04:25:11.595Z,16.31
2019-05-10T04:27:42.691Z,16.53
2019-05-10T04:30:18.156Z,16.87
2019-05-10T04:33:08.233Z,17.17
2019-05-10T04:41:32.135Z,18.01
2019-05-10T04:44:02.431Z,18.23
2019-05-10T04:46:32.661Z,18.57
2019-05-10T04:49:22.482Z,18.55
2019-05-10T04:52:12.699Z,18.69
2019-05-10T04:55:02.614Z,18.69
2019-05-10T04:57:49.245Z,18.11
2019-05-10T05:00:25.519Z,17.37
2019-05-10T05:02:56.630Z,16.92
2019-05-10T05:05:45.853Z,16.50
2019-05-10T05:08:16.547Z,16.36
2019-05-10T05:13:56.090Z,16.23
2019-05-10T05:16:26.360Z,16.70
2019-05-10T05:18:56.719Z,17.68
2019-05-10T05:27:20.174Z,20.69
2019-05-10T05:29:53.187Z,20.92
2019-05-10T05:32:23.405Z,21.03
2019-05-10T05:45:38.396Z,21.10
2019-05-10T05:48:39.553Z,20.96
2019-05-10T05:50:59.514Z,21.02
2019-05-10T05:56:52.972Z,21.17
2019-05-10T06:02:24.855Z,20.97
2019-05-10T06:05:34.570Z,20.73
2019-05-10T06:08:21.252Z,20.73
2019-05-10T06:10:58.183Z,20.82
2019-05-10T06:13:29.336Z,20.69
2019-05-10T06:15:55.032Z,21.51
2019-05-10T06:18:47.204Z,22.64
2019-05-10T06:21:18.082Z,22.64
2019-05-10T06:26:58.217Z,23.25
2019-05-10T06:29:44.787Z,23.67
2019-05-10T06:32:15.284Z,24.08
2019-05-10T06:35:04.855Z,24.38
2019-05-10T06:43:07.106Z,23.78
2019-05-10T06:45:34.588Z,23.64
2019-05-10T06:48:44.188Z,23.63
2019-05-10T06:51:14.320Z,23.46
2019-05-10T06:54:05.887Z,22.88
2019-05-10T06:59:57.085Z,22.54
2019-05-10T07:02:32.193Z,22.69
2019-05-10T07:05:20.232Z,22.93
2019-05-10T07:07:52.812Z,22.39
2019-05-10T07:10:45.242Z,21.99
2019-05-10T07:13:54.639Z,22.73
2019-05-10T07:16:36.812Z,22.80
2019-05-10T07:21:52.561Z,23.58
2019-05-10T07:24:27.857Z,24.17
2019-05-10T07:39:49.347Z,23.28
2019-05-10T07:42:21.825Z,23.27
2019-05-10T07:48:08.307Z,24.00
2019-05-10T07:53:49.851Z,24.14
2019-05-10T07:56:51.880Z,24.14
2019-05-10T08:03:02.342Z,24.72
2019-05-10T08:05:39.248Z,24.23
2019-05-10T08:11:28.579Z,24.55
2019-05-10T08:16:42.860Z,25.12
2019-05-10T08:19:37.465Z,25.05
2019-05-10T08:22:25.500Z,24.18
2019-05-10T08:31:26.210Z,23.63
2019-05-10T08:36:57.676Z,22.39
2019-05-10T08:39:44.088Z,22.69
2019-05-10T08:42:40.149Z,22.69
2019-05-10T08:45:03.935Z,23.11
2019-05-10T08:50:57.116Z,23.80
2019-05-10T08:53:47.100Z,23.98
2019-05-10T08:56:23.487Z,24.75
2019-05-10T08:59:04.195Z,25.10
2019-05-10T09:04:50.203Z,25.00
2019-05-10T09:08:03.255Z,24.91
2019-05-10T09:11:11.862Z,25.39
2019-05-10T09:13:53.398Z,24.94
2019-05-10T09:16:29.175Z,24.44
2019-05-10T09:19:18.827Z,24.41
2019-05-10T09:24:48.319Z,23.63
2019-05-10T09:33:18.414Z,23.61
2019-05-10T09:35:52.345Z,24.23
2019-05-10T09:38:28.600Z,24.12
2019-05-10T09:40:59.602Z,24.32
2019-05-10T09:43:50.476Z,24.32
2019-05-10T09:46:27.645Z,24.19
2019-05-10T09:49:18.501Z,24.53
2019-05-10T09:51:55.056Z,23.84
2019-05-10T09:54:29.660Z,23.34
2019-05-10T10:00:38.025Z,24.77
2019-05-10T10:03:08.788Z,24.75
2019-05-10T10:05:43.399Z,24.75
2019-05-10T10:08:18.042Z,24.76
2019-05-10T10:10:52.408Z,24.91
2019-05-10T10:19:50.765Z,24.43
2019-05-10T10:22:30.817Z,24.26
2019-05-10T10:25:17.687Z,24.54
2019-05-10T10:27:44.592Z,24.76
2019-05-10T10:30:37.302Z,25.40
2019-05-10T10:33:29.646Z,25.82
2019-05-10T10:36:10.750Z,25.60
2019-05-10T10:42:17.689Z,25.57
2019-05-10T10:48:17.849Z,26.57
2019-05-10T10:50:55.573Z,26.28
2019-05-10T10:53:58.287Z,26.38
2019-05-10T10:57:09.853Z,26.62
2019-05-10T10:59:43.204Z,26.12
2019-05-10T11:02:31.415Z,25.17
2019-05-10T11:07:33.775Z,24.92
2019-05-10T11:10:21.587Z,25.23
2019-05-10T11:12:41.255Z,24.84
2019-05-10T11:28:12.488Z,25.65
2019-05-10T11:34:06.101Z,26.15
2019-05-10T11:39:45.131Z,25.71
2019-05-10T11:42:11.870Z,25.48
2019-05-10T11:44:49.965Z,25.91
2019-05-10T11:47:48.177Z,26.04
2019-05-10T11:50:34.912Z,25.67
2019-05-10T11:53:06.839Z,25.62
2019-05-10T11:55:39.765Z,25.94
2019-05-10T12:01:22.272Z,26.88
2019-05-10T12:03:54.336Z,26.65
2019-05-10T12:09:13.818Z,27.13
2019-05-10T12:11:52.292Z,27.54
2019-05-10T12:17:47.599Z,27.78
2019-05-10T12:20:51.576Z,26.98
2019-05-10T12:23:22.889Z,26.98
2019-05-10T12:28:41.173Z,28.09
2019-05-10T12:35:08.687Z,26.99
2019-05-10T12:40:45.828Z,26.66
2019-05-10T12:43:40.932Z,26.82
2019-05-10T12:49:17.061Z,26.97
2019-05-10T12:52:16.096Z,26.66
2019-05-10T12:54:50.415Z,26.30
2019-05-10T12:57:27.069Z,26.84
2019-05-10T12:59:59.447Z,27.26
2019-05-10T13:09:41.508Z,27.17
2019-05-10T13:12:11.633Z,26.24
2019-05-10T13:18:49.803Z,25.82
2019-05-10T13:27:11.041Z,26.65
2019-05-10T13:30:27.840Z,26.83
2019-05-10T13:41:33.106Z,26.21
2019-05-10T13:47:43.236Z,27.98
2019-05-10T14:03:44.494Z,28.32
2019-05-10T14:06:54.483Z,28.46
2019-05-10T14:19:01.195Z,27.21
2019-05-10T14:22:30.206Z,27.60
2019-05-10T14:24:52.179Z,28.23
2019-05-10T14:27:38.746Z,28.99
2019-05-10T14:30:17.965Z,29.75
2019-05-10T14:33:14.657Z,30.35
2019-05-10T14:36:07.733Z,30.23
2019-05-10T14:38:41.610Z,28.91
2019-05-10T14:41:17.281Z,28.73
2019-05-10T14:46:51.352Z,29.66
2019-05-10T14:50:04.020Z,29.61
2019-05-10T14:53:13.625Z,29.85
2019-05-10T14:59:08.370Z,30.29
2019-05-10T15:05:48.839Z,29.09
2019-05-10T15:08:49.829Z,29.09
2019-05-10T15:11:49.996Z,29.06
2019-05-10T15:14:22.071Z,29.16
2019-05-10T15:16:54.296Z,29.96
2019-05-10T15:19:30.785Z,29.85
2019-05-10T15:22:23.137Z,29.07
2019-05-10T15:28:17.692Z,28.84
2019-05-10T15:31:23.557Z,28.27
2019-05-10T15:42:36.351Z,29.55
2019-05-10T15:48:04.535Z,27.64
2019-05-10T15:50:41.180Z,27.29
2019-05-10T15:53:13.826Z,26.90
2019-05-10T15:56:25.009Z,26.98
2019-05-10T15:58:57.165Z,26.77
2019-05-10T16:02:07.149Z,27.09
2019-05-10T16:10:28.432Z,28.34
2019-05-10T16:13:23.250Z,27.88
2019-05-10T16:16:21.978Z,26.32
2019-05-10T16:18:55.988Z,26.32
2019-05-10T16:21:52.049Z,26.36
2019-05-10T16:24:26.136Z,26.36
2019-05-10T16:30:36.451Z,25.76
2019-05-10T16:36:49.148Z,26.09
2019-05-10T16:48:40.476Z,25.92
2019-05-10T16:54:28.462Z,25.50
2019-05-10T16:57:24.475Z,25.87
2019-05-10T17:07:13.047Z,26.36
2019-05-10T17:10:46.462Z,26.47
2019-05-10T17:17:00.007Z,26.43
2019-05-10T17:26:54.613Z,25.84
2019-05-10T17:33:23.392Z,25.94
2019-05-10T17:39:32.011Z,26.07
2019-05-10T17:55:55.601Z,25.67
2019-05-10T17:58:56.317Z,25.83
2019-05-10T18:08:10.579Z,25.28
2019-05-10T18:14:21.472Z,25.33
2019-05-10T18:17:32.787Z,25.27
2019-05-10T18:21:15.663Z,25.63
2019-05-10T18:27:06.757Z,25.61
2019-05-10T18:33:06.666Z,24.97
2019-05-10T18:35:52.792Z,24.94
2019-05-10T18:39:03.394Z,24.68
2019-05-10T18:42:06.168Z,24.56
2019-05-10T18:51:42.760Z,24.48
2019-05-10T18:57:59.662Z,24.01
2019-05-10T19:16:58.376Z,23.55
2019-05-10T19:19:42.122Z,23.65
2019-05-10T19:22:54.070Z,23.90
2019-05-10T19:28:49.323Z,23.88
2019-05-10T19:31:20.042Z,23.75
2019-05-10T19:33:57.249Z,23.49
2019-05-10T19:40:03.725Z,23.24
2019-05-10T19:46:39.265Z,23.25
2019-05-10T19:49:51.870Z,23.05
2019-05-10T19:52:49.397Z,22.91
2019-05-10T19:59:11.910Z,22.65
2019-05-10T20:04:29.802Z,22.62
2019-05-10T20:07:45.853Z,22.56
2019-05-10T20:10:23.730Z,22.33
2019-05-10T20:13:16.227Z,21.93
2019-05-10T20:16:20.179Z,21.88
2019-05-10T20:18:55.264Z,21.93
2019-05-10T20:22:11.794Z,22.00
2019-05-10T20:28:24.063Z,21.93
2019-05-10T20:31:31.391Z,21.75
2019-05-10T20:34:41.496Z,21.70
2019-05-10T20:37:16.010Z,21.67
2019-05-10T20:39:48.008Z,21.72
2019-05-10T20:42:20.274Z,21.80
2019-05-10T20:45:31.499Z,21.90
2019-05-10T20:48:02.647Z,21.82
2019-05-10T20:50:36.283Z,21.88
2019-05-10T20:53:08.367Z,21.81
2019-05-10T20:58:44.399Z,21.96
2019-05-10T21:04:12.074Z,22.11
2019-05-10T21:06:53.334Z,22.24
2019-05-10T21:09:44.176Z,22.29
2019-05-10T21:12:16.106Z,22.41
2019-05-10T21:14:59.816Z,22.71
2019-05-10T21:17:48.969Z,22.87
2019-05-10T21:24:21.424Z,22.74
2019-05-10T21:33:03.025Z,22.62
2019-05-10T21:35:39.866Z,22.66
2019-05-10T21:38:33.168Z,22.74
2019-05-10T21:44:07.246Z,22.73
2019-05-10T21:46:56.992Z,22.73
2019-05-10T21:49:59.257Z,22.70
2019-05-10T21:52:51.233Z,22.78
2019-05-10T21:55:13.015Z,23.01
2019-05-10T21:57:46.300Z,22.67
2019-05-10T22:09:12.133Z,22.06
2019-05-10T22:11:52.582Z,21.90
2019-05-10T22:14:23.460Z,21.88
2019-05-10T22:16:55.180Z,21.72
2019-05-10T22:19:26.239Z,21.72
2019-05-10T22:25:03.146Z,21.39
2019-05-10T22:27:52.884Z,21.39
2019-05-10T22:30:36.532Z,21.28
2019-05-10T22:33:25.429Z,21.29
2019-05-10T22:35:57.840Z,21.29
2019-05-10T22:39:05.329Z,21.29
2019-05-10T22:44:50.705Z,21.27
2019-05-10T22:50:56.781Z,21.12
2019-05-10T22:54:00.020Z,21.01
2019-05-10T22:56:40.779Z,20.91
2019-05-10T22:59:51.945Z,21.00
2019-05-10T23:02:36.237Z,21.03
2019-05-10T23:08:01.172Z,21.24
2019-05-10T23:13:42.675Z,21.37
2019-05-10T23:27:53.528Z,21.40
2019-05-10T23:30:45.926Z,21.09
2019-05-10T23:33:22.201Z,20.71
2019-05-10T23:38:50.294Z,20.13
2019-05-10T23:41:40.482Z,19.78
2019-05-10T23:46:55.369Z,19.74
2019-05-10T23:49:27.362Z,19.63
2019-05-10T23:52:37.632Z,19.68
2019-05-10T23:55:08.704Z,19.65
2019-05-10T23:57:41.780Z,19.53
